Time;durP1;ratioP1;P1;durP2;ratioP2;P2;SDS_P1;SDS_P2;PMS_P1;PMS_P2;Temp;Humidity;BMP_temperature;BMP_pressure;BME280_temperature;BME280_humidity;BME280_pressure;Samples;Min_cycle;Max_cycle;Signal;HPM_P1;HPM_P2
2023/08/03 00:00:43;;;;;;;15.33;8.30;;;15.30;82.00;;;;;;5071871;28;20202;-65
2023/08/03 00:03:10;;;;;;;15.67;7.53;;;15.50;81.60;;;;;;5073107;28;20188;-65
2023/08/03 00:05:37;;;;;;;22.03;7.73;;;15.60;80.70;;;;;;5068676;28;20692;-65
2023/08/03 00:08:05;;;;;;;16.07;8.13;;;15.70;80.70;;;;;;5070914;28;20211;-65
2023/08/03 00:10:35;;;;;;;13.27;6.60;;;15.80;80.00;;;;;;5070577;28;20219;-65
2023/08/03 00:13:02;;;;;;;12.77;5.97;;;15.90;79.50;;;;;;5071715;28;20198;-64
2023/08/03 00:15:29;;;;;;;15.93;6.50;;;16.10;79.20;;;;;;5067384;28;20175;-65
2023/08/03 00:17:57;;;;;;;24.33;6.47;;;16.30;78.60;;;;;;5066724;28;20184;-65
2023/08/03 00:20:24;;;;;;;17.40;6.57;;;16.40;78.00;;;;;;5063712;28;20215;-65
2023/08/03 00:22:51;;;;;;;14.20;5.17;;;16.50;77.30;;;;;;5070075;28;20190;-65
2023/08/03 00:25:19;;;;;;;14.47;5.37;;;16.60;76.60;;;;;;5067707;28;20275;-65
2023/08/03 00:27:46;;;;;;;16.87;5.47;;;16.80;76.20;;;;;;5070282;28;20243;-66
2023/08/03 00:30:14;;;;;;;19.03;5.07;;;16.90;75.50;;;;;;5068503;28;20193;-65
2023/08/03 00:32:41;;;;;;;17.10;5.07;;;17.00;75.20;;;;;;5070393;28;20237;-65
2023/08/03 00:35:09;;;;;;;13.30;4.43;;;17.20;74.50;;;;;;5071639;28;20198;-65
2023/08/03 00:37:38;;;;;;;18.60;5.07;;;17.20;74.00;;;;;;5071260;28;20198;-65
2023/08/03 00:40:07;;;;;;;10.93;4.40;;;17.20;73.90;;;;;;5070891;28;20187;-65
2023/08/03 00:42:34;;;;;;;17.20;4.57;;;17.30;73.20;;;;;;5067725;28;20174;-65
2023/08/03 00:45:01;;;;;;;11.53;3.53;;;17.50;72.90;;;;;;5070393;28;20187;-65
2023/08/03 00:47:29;;;;;;;10.40;3.37;;;17.70;71.80;;;;;;5065664;28;20270;-65
2023/08/03 00:49:56;;;;;;;12.57;3.93;;;17.80;70.80;;;;;;5071250;28;20187;-66
2023/08/03 00:52:25;;;;;;;13.00;3.50;;;17.90;69.50;;;;;;5068929;28;20190;-65
2023/08/03 00:54:53;;;;;;;12.33;3.43;;;18.10;69.60;;;;;;5075375;28;20595;-65
2023/08/03 00:57:20;;;;;;;11.10;3.07;;;18.30;68.10;;;;;;5071561;28;20182;-65
2023/08/03 00:59:48;;;;;;;10.67;3.30;;;18.50;68.00;;;;;;5068567;28;20885;-65
2023/08/03 01:02:15;;;;;;;9.57;2.80;;;18.50;67.20;;;;;;5071206;28;20187;-65
2023/08/03 01:04:42;;;;;;;9.20;2.70;;;18.60;66.40;;;;;;5068494;28;20767;-65
2023/08/03 01:07:10;;;;;;;14.07;2.93;;;18.70;66.10;;;;;;5070011;28;20214;-65
2023/08/03 01:09:37;;;;;;;8.30;3.13;;;18.80;65.80;;;;;;5066382;28;20182;-64
2023/08/03 01:12:05;;;;;;;11.60;2.83;;;18.90;65.10;;;;;;5064636;28;20190;-65
2023/08/03 01:14:32;;;;;;;7.53;2.73;;;19.00;63.90;;;;;;5070870;28;20724;-65
2023/08/03 01:16:59;;;;;;;7.83;2.07;;;19.10;63.50;;;;;;5069457;28;20187;-64
2023/08/03 01:19:27;;;;;;;5.33;2.27;;;19.20;62.60;;;;;;5071502;28;20213;-65
2023/08/03 01:21:56;;;;;;;6.37;2.70;;;19.40;60.90;;;;;;5070515;28;20182;-64
2023/08/03 01:24:23;;;;;;;8.03;2.57;;;19.50;60.50;;;;;;5071030;28;20645;-65
2023/08/03 01:26:51;;;;;;;6.37;2.20;;;19.40;60.10;;;;;;5063981;28;20320;-65
2023/08/03 01:29:18;;;;;;;4.73;1.90;;;19.30;61.10;;;;;;5070363;28;20188;-65
2023/08/03 01:31:45;;;;;;;9.07;2.30;;;19.50;60.10;;;;;;5066666;28;20237;-66
2023/08/03 01:34:13;;;;;;;8.07;2.43;;;19.40;59.70;;;;;;5074011;28;20652;-65
2023/08/03 01:36:40;;;;;;;8.67;2.20;;;19.40;59.80;;;;;;5072471;28;20207;-64
2023/08/03 01:39:09;;;;;;;7.73;2.23;;;19.40;60.20;;;;;;5071158;28;20914;-67
2023/08/03 01:41:40;;;;;;;7.70;2.50;;;19.70;59.30;;;;;;5069954;28;20175;-65
2023/08/03 01:44:20;;;;;;;7.87;2.63;;;20.10;58.40;;;;;;5067203;28;20541;-66
2023/08/03 01:46:48;;;;;;;9.40;2.50;;;20.30;57.80;;;;;;5069453;28;20545;-66
2023/08/03 01:49:16;;;;;;;5.67;2.00;;;20.50;56.60;;;;;;5068689;28;20191;-66
2023/08/03 01:51:43;;;;;;;7.17;2.20;;;20.30;56.80;;;;;;5075233;28;20184;-65
2023/08/03 01:54:12;;;;;;;6.70;2.23;;;20.40;56.60;;;;;;5069377;28;20183;-66
2023/08/03 01:56:40;;;;;;;7.13;2.30;;;20.40;55.60;;;;;;5070053;28;20591;-66
2023/08/03 01:59:07;;;;;;;7.37;3.00;;;20.50;56.10;;;;;;5069110;28;20210;-67
2023/08/03 02:01:34;;;;;;;7.87;2.70;;;20.00;56.30;;;;;;5070799;28;20193;-66
2023/08/03 02:04:02;;;;;;;5.87;2.33;;;20.30;55.80;;;;;;5070552;28;20179;-66
2023/08/03 02:06:29;;;;;;;8.80;2.47;;;20.40;55.40;;;;;;5076311;28;20269;-67
2023/08/03 02:08:56;;;;;;;7.50;2.37;;;20.30;56.10;;;;;;5073819;28;20183;-64
2023/08/03 02:11:24;;;;;;;8.90;2.70;;;20.20;56.70;;;;;;5073651;28;20650;-65
2023/08/03 02:13:51;;;;;;;15.73;4.10;;;20.40;56.80;;;;;;5088646;28;20538;-67
2023/08/03 02:16:19;;;;;;;14.10;2.73;;;20.80;55.80;;;;;;5071562;28;20186;-66
2023/08/03 02:18:46;;;;;;;9.23;2.17;;;21.00;56.00;;;;;;5071861;28;20290;-65
2023/08/03 02:21:13;;;;;;;5.83;2.47;;;21.30;55.70;;;;;;5077228;28;20178;-66
2023/08/03 02:23:41;;;;;;;34.97;6.17;;;21.20;53.20;;;;;;5071575;28;20179;-66
2023/08/03 02:26:08;;;;;;;26.50;5.20;;;21.20;53.70;;;;;;5072785;28;20684;-66
2023/08/03 02:28:36;;;;;;;6.63;2.50;;;20.80;54.90;;;;;;5072219;28;20179;-65
2023/08/03 02:31:03;;;;;;;9.00;3.00;;;21.00;54.70;;;;;;5073562;28;20653;-65
2023/08/03 02:33:30;;;;;;;5.43;2.23;;;21.20;53.90;;;;;;5072549;28;20705;-65
2023/08/03 02:35:58;;;;;;;8.70;2.70;;;21.30;54.20;;;;;;5073029;28;20449;-65
2023/08/03 02:38:25;;;;;;;9.57;3.80;;;21.60;52.50;;;;;;5073020;28;20254;-65
2023/08/03 02:40:53;;;;;;;11.93;2.97;;;21.30;53.90;;;;;;5074097;28;20187;-66
2023/08/03 02:43:20;;;;;;;7.33;2.57;;;21.40;53.60;;;;;;5073894;28;21474;-65
2023/08/03 02:45:47;;;;;;;8.07;2.90;;;21.40;53.30;;;;;;5073330;28;20171;-65
2023/08/03 02:48:15;;;;;;;7.03;3.27;;;21.70;53.20;;;;;;5073619;28;20630;-65
2023/08/03 02:50:42;;;;;;;7.30;2.57;;;21.70;53.50;;;;;;5073852;28;20517;-65
2023/08/03 02:53:09;;;;;;;8.63;2.23;;;21.40;53.60;;;;;;5073283;28;20179;-65
2023/08/03 02:55:36;;;;;;;4.70;2.03;;;21.30;54.90;;;;;;5072172;28;20215;-64
2023/08/03 02:58:04;;;;;;;8.43;2.80;;;21.30;54.30;;;;;;5073767;28;20190;-64
2023/08/03 03:00:31;;;;;;;9.27;3.57;;;21.60;54.20;;;;;;5073513;28;20384;-64
2023/08/03 03:02:59;;;;;;;6.43;3.43;;;21.80;53.10;;;;;;5073620;28;20204;-63
2023/08/03 03:05:26;;;;;;;7.33;3.27;;;22.00;52.60;;;;;;5072854;28;20266;-64
2023/08/03 03:07:54;;;;;;;9.90;4.40;;;22.30;52.20;;;;;;5073076;28;20183;-65
2023/08/03 03:10:21;;;;;;;11.17;5.50;;;22.80;51.00;;;;;;5073163;28;20230;-64
2023/08/03 03:12:48;;;;;;;14.07;5.30;;;22.40;51.90;;;;;;5073310;28;20179;-66
2023/08/03 03:15:15;;;;;;;9.37;5.43;;;22.30;51.60;;;;;;5072661;28;20190;-63
2023/08/03 03:17:43;;;;;;;8.23;4.50;;;22.50;50.90;;;;;;5072937;28;20539;-65
2023/08/03 03:20:11;;;;;;;12.50;4.37;;;22.80;50.90;;;;;;5071669;28;20666;-64
2023/08/03 03:22:39;;;;;;;16.03;5.50;;;22.80;50.40;;;;;;5072508;28;20261;-64
2023/08/03 03:25:07;;;;;;;6.97;4.03;;;22.80;50.00;;;;;;5072994;28;20191;-65
2023/08/03 03:27:34;;;;;;;9.87;4.07;;;23.10;49.40;;;;;;5072712;28;20176;-65
2023/08/03 03:30:01;;;;;;;12.37;4.17;;;23.00;49.10;;;;;;5073013;28;20531;-64
2023/08/03 03:32:28;;;;;;;9.60;4.70;;;22.50;49.80;;;;;;5072503;28;20231;-64
2023/08/03 03:34:56;;;;;;;10.87;4.97;;;22.70;49.30;;;;;;5068555;28;20187;-65
2023/08/03 03:37:23;;;;;;;12.33;6.60;;;22.80;49.90;;;;;;5072390;28;20171;-65
2023/08/03 03:39:50;;;;;;;11.57;6.13;;;23.30;48.80;;;;;;5072714;28;20722;-64
2023/08/03 03:42:18;;;;;;;8.37;4.83;;;23.30;49.70;;;;;;5072364;28;20198;-64
2023/08/03 03:44:45;;;;;;;13.53;4.57;;;23.30;51.00;;;;;;5072215;28;20673;-65
2023/08/03 03:47:12;;;;;;;15.03;4.43;;;23.60;50.50;;;;;;5072415;28;20183;-65
2023/08/03 03:49:40;;;;;;;10.30;4.50;;;23.90;49.40;;;;;;5072295;28;20176;-64
2023/08/03 03:52:08;;;;;;;9.53;6.10;;;24.10;49.00;;;;;;5072292;28;20660;-64
2023/08/03 03:54:35;;;;;;;13.33;5.43;;;24.00;47.40;;;;;;5072202;28;20190;-66
2023/08/03 03:57:02;;;;;;;8.93;3.90;;;24.10;47.90;;;;;;5072525;28;20175;-69
2023/08/03 03:59:30;;;;;;;6.70;2.93;;;24.10;48.80;;;;;;5072210;28;20207;-68
2023/08/03 04:01:57;;;;;;;9.70;2.90;;;24.00;50.70;;;;;;5072391;28;20179;-68
2023/08/03 04:04:24;;;;;;;6.07;2.30;;;23.90;51.80;;;;;;5072041;28;20266;-65
2023/08/03 04:06:51;;;;;;;10.83;2.73;;;24.20;51.20;;;;;;5068945;28;20308;-66
2023/08/03 04:09:19;;;;;;;8.43;2.20;;;24.90;48.80;;;;;;5072722;28;20180;-69
2023/08/03 04:11:46;;;;;;;5.37;2.00;;;24.60;50.50;;;;;;5072337;28;20191;-64
2023/08/03 04:14:13;;;;;;;8.37;2.07;;;24.40;51.20;;;;;;5072071;28;20186;-69
2023/08/03 04:16:41;;;;;;;6.40;2.20;;;24.30;51.70;;;;;;5072090;28;20191;-68
2023/08/03 04:19:08;;;;;;;5.57;2.17;;;23.90;52.50;;;;;;5071973;28;20689;-68
2023/08/03 04:21:35;;;;;;;6.83;2.23;;;24.30;52.30;;;;;;5071395;28;20167;-67
2023/08/03 04:24:03;;;;;;;9.23;2.30;;;24.30;51.40;;;;;;5072025;28;20201;-64
2023/08/03 04:26:30;;;;;;;5.90;2.17;;;24.40;51.90;;;;;;5071523;28;20171;-64
2023/08/03 04:28:57;;;;;;;10.03;3.13;;;24.40;51.80;;;;;;5071827;28;20234;-64
2023/08/03 04:31:27;;;;;;;7.67;2.40;;;24.30;52.50;;;;;;5071664;28;20247;-63
2023/08/03 04:33:54;;;;;;;9.70;2.93;;;24.60;52.40;;;;;;5071889;28;20186;-64
2023/08/03 04:36:21;;;;;;;9.00;2.93;;;24.50;52.40;;;;;;5071568;28;20521;-65
2023/08/03 04:38:49;;;;;;;7.47;2.70;;;24.60;51.90;;;;;;5067640;28;20570;-64
2023/08/03 04:41:16;;;;;;;9.93;2.30;;;24.70;52.30;;;;;;5071481;28;20296;-64
2023/08/03 04:43:44;;;;;;;5.73;2.30;;;24.70;51.60;;;;;;5073633;28;20237;-63
2023/08/03 04:46:11;;;;;;;7.67;2.27;;;24.20;52.60;;;;;;5070312;28;20194;-65
2023/08/03 04:48:39;;;;;;;10.17;2.33;;;24.30;52.90;;;;;;5068412;28;20712;-65
2023/08/03 04:51:07;;;;;;;8.70;2.27;;;24.30;52.70;;;;;;5071231;28;20225;-64
2023/08/03 04:53:35;;;;;;;9.00;2.50;;;24.40;51.90;;;;;;5070476;28;20572;-68
2023/08/03 04:56:02;;;;;;;5.67;2.40;;;23.80;53.80;;;;;;5067691;28;20233;-64
2023/08/03 04:58:29;;;;;;;11.50;2.50;;;24.20;52.30;;;;;;5069104;28;20206;-65
2023/08/03 05:00:57;;;;;;;7.60;2.23;;;23.80;53.00;;;;;;5070357;28;20610;-72
2023/08/03 05:03:25;;;;;;;9.03;2.40;;;24.30;52.80;;;;;;5072578;28;20175;-70
2023/08/03 05:05:53;;;;;;;5.60;2.20;;;24.50;52.10;;;;;;5067105;28;20194;-65
2023/08/03 05:08:22;;;;;;;8.37;2.30;;;24.30;51.90;;;;;;5070302;28;20538;-66
2023/08/03 05:10:50;;;;;;;7.73;2.50;;;24.30;52.00;;;;;;5071187;28;20184;-65
2023/08/03 05:13:18;;;;;;;11.70;2.40;;;24.80;51.40;;;;;;5071003;28;20183;-68
2023/08/03 05:15:45;;;;;;;12.90;2.60;;;24.30;52.00;;;;;;5070927;28;20214;-65
2023/08/03 05:18:12;;;;;;;5.57;2.37;;;24.20;52.20;;;;;;5070947;28;20210;-66
2023/08/03 05:20:40;;;;;;;5.50;2.17;;;24.30;51.70;;;;;;5071893;28;20184;-66
2023/08/03 05:23:09;;;;;;;7.67;1.83;;;24.20;52.20;;;;;;5070593;28;20187;-66
2023/08/03 05:25:36;;;;;;;11.03;2.23;;;24.20;52.50;;;;;;5071134;28;20222;-65
2023/08/03 05:28:03;;;;;;;8.43;2.13;;;24.30;52.10;;;;;;5070715;28;20187;-65
2023/08/03 05:30:31;;;;;;;8.53;2.23;;;24.00;52.50;;;;;;5070705;28;20258;-65
2023/08/03 05:33:00;;;;;;;11.20;2.53;;;24.10;52.30;;;;;;5070585;28;20311;-66
2023/08/03 05:35:27;;;;;;;9.23;2.33;;;24.20;52.00;;;;;;5068416;28;20195;-65
2023/08/03 05:37:55;;;;;;;9.40;2.30;;;24.50;51.30;;;;;;5071556;28;20202;-65
2023/08/03 05:40:22;;;;;;;6.17;2.47;;;24.40;50.40;;;;;;5077967;28;20189;-65
2023/08/03 05:42:50;;;;;;;8.37;2.37;;;24.30;50.90;;;;;;5075916;28;21271;-65
2023/08/03 05:45:39;;;;;;;8.47;2.27;;;24.00;51.70;;;;;;5077454;28;20266;-67
2023/08/03 05:48:13;;;;;;;8.73;2.33;;;24.10;51.30;;;;;;5067648;28;20328;-65
2023/08/03 05:50:46;;;;;;;6.13;1.83;;;24.40;50.60;;;;;;5073969;28;20680;-67
2023/08/03 05:53:13;;;;;;;5.80;1.97;;;24.30;51.00;;;;;;5069675;28;20190;-69
2023/08/03 05:55:42;;;;;;;9.87;2.50;;;24.10;51.60;;;;;;5073230;28;20254;-65
2023/08/03 05:58:15;;;;;;;6.00;2.03;;;24.20;51.10;;;;;;5073473;28;20638;-65
2023/08/03 06:00:46;;;;;;;9.40;2.67;;;24.30;51.70;;;;;;5072140;28;20539;-64
2023/08/03 06:03:15;;;;;;;7.27;2.47;;;24.30;51.20;;;;;;5067531;28;20180;-65
2023/08/03 06:05:45;;;;;;;9.60;2.10;;;24.00;52.20;;;;;;5071221;28;20190;-65
2023/08/03 06:08:20;;;;;;;8.13;2.43;;;23.80;53.20;;;;;;5070752;28;20207;-67
2023/08/03 06:10:53;;;;;;;10.87;2.57;;;24.00;52.30;;;;;;5071004;28;20178;-70
2023/08/03 06:13:28;;;;;;;9.00;2.30;;;24.00;52.40;;;;;;5073625;28;20677;-71
2023/08/03 06:15:56;;;;;;;10.57;2.20;;;23.00;54.30;;;;;;5073024;28;20186;-67
2023/08/03 06:18:23;;;;;;;7.87;2.30;;;22.10;57.50;;;;;;5073757;28;20328;-66
2023/08/03 06:20:53;;;;;;;7.80;2.37;;;21.60;59.40;;;;;;5074012;28;20187;-65
2023/08/03 06:23:29;;;;;;;6.57;2.30;;;21.10;61.00;;;;;;5073408;28;20179;-66
2023/08/03 06:25:58;;;;;;;8.47;2.40;;;20.70;62.40;;;;;;5073181;28;20203;-66
2023/08/03 06:28:27;;;;;;;14.87;2.97;;;20.30;63.70;;;;;;5072757;28;20194;-64
2023/08/03 06:30:54;;;;;;;7.73;2.00;;;20.20;64.30;;;;;;5073881;28;20187;-65
2023/08/03 06:33:22;;;;;;;11.53;2.70;;;20.30;64.10;;;;;;5073798;28;20215;-67
2023/08/03 06:35:54;;;;;;;7.20;2.40;;;19.90;65.20;;;;;;5072983;28;20649;-65
2023/08/03 06:38:22;;;;;;;10.47;2.67;;;19.90;65.70;;;;;;5070389;28;20233;-67
2023/08/03 06:40:51;;;;;;;9.57;2.80;;;19.80;65.70;;;;;;5073283;28;20543;-66
2023/08/03 06:43:18;;;;;;;8.53;2.10;;;19.60;66.20;;;;;;5073688;28;20187;-65
2023/08/03 06:45:46;;;;;;;6.27;2.20;;;19.50;66.70;;;;;;5073600;28;20198;-65
2023/08/03 06:48:14;;;;;;;14.87;2.80;;;19.40;67.00;;;;;;5067967;28;20237;-65
2023/08/03 06:50:42;;;;;;;7.00;2.57;;;19.30;67.30;;;;;;5068341;28;20195;-65
2023/08/03 06:53:10;;;;;;;5.53;2.43;;;19.20;67.80;;;;;;5071185;28;20275;-65
2023/08/03 06:55:37;;;;;;;7.23;2.33;;;19.00;68.00;;;;;;5071726;28;20637;-64
2023/08/03 06:58:05;;;;;;;9.03;2.87;;;18.90;68.40;;;;;;5072823;28;20183;-65
2023/08/03 07:00:32;;;;;;;6.23;2.63;;;18.80;68.50;;;;;;5069937;28;20221;-66
2023/08/03 07:03:00;;;;;;;11.73;2.80;;;18.80;68.90;;;;;;5072893;28;20570;-65
2023/08/03 07:05:27;;;;;;;9.53;2.53;;;18.70;69.10;;;;;;5072284;28;20187;-68
2023/08/03 07:07:54;;;;;;;8.97;2.57;;;18.60;69.40;;;;;;5075339;28;20186;-67
2023/08/03 07:10:22;;;;;;;11.50;3.27;;;18.60;69.50;;;;;;5071748;28;20184;-65
2023/08/03 07:12:49;;;;;;;9.17;3.30;;;18.50;70.00;;;;;;5068496;28;20195;-64
2023/08/03 07:15:16;;;;;;;8.60;2.60;;;18.40;70.10;;;;;;5071706;28;20198;-64
2023/08/03 07:17:44;;;;;;;10.40;3.00;;;18.30;70.60;;;;;;5069717;28;20202;-65
2023/08/03 07:20:12;;;;;;;10.23;3.10;;;18.20;70.80;;;;;;5072594;28;20241;-64
2023/08/03 07:22:40;;;;;;;13.47;3.33;;;18.20;71.20;;;;;;5067452;28;20244;-68
2023/08/03 07:25:08;;;;;;;5.27;2.83;;;18.10;71.40;;;;;;5073213;28;20190;-66
2023/08/03 07:27:35;;;;;;;9.10;2.53;;;18.00;71.70;;;;;;5070540;28;20548;-65
2023/08/03 07:30:03;;;;;;;8.10;3.10;;;18.00;72.20;;;;;;5072457;28;20190;-66
2023/08/03 07:32:30;;;;;;;11.53;2.53;;;17.90;72.40;;;;;;5067739;28;20219;-73
2023/08/03 07:34:59;;;;;;;7.67;2.60;;;17.90;72.70;;;;;;5072032;28;20664;-65
2023/08/03 07:37:26;;;;;;;8.67;2.90;;;17.80;73.20;;;;;;5068291;28;20179;-69
2023/08/03 07:39:54;;;;;;;7.73;2.80;;;17.80;73.50;;;;;;5071521;28;20681;-69
2023/08/03 07:42:21;;;;;;;7.93;2.70;;;17.80;73.70;;;;;;5072322;28;20178;-66
2023/08/03 07:44:52;;;;;;;7.83;3.07;;;17.70;74.10;;;;;;5069746;28;20205;-66
2023/08/03 07:47:20;;;;;;;12.03;2.97;;;17.70;74.30;;;;;;5069593;28;20671;-65
2023/08/03 07:49:47;;;;;;;9.47;2.70;;;17.60;74.50;;;;;;5069270;28;20174;-66
2023/08/03 07:52:15;;;;;;;13.67;3.17;;;17.50;74.60;;;;;;5069263;28;20996;-68
2023/08/03 07:54:42;;;;;;;8.13;2.77;;;17.50;74.80;;;;;;5069803;28;20654;-67
2023/08/03 07:57:15;;;;;;;8.03;2.80;;;17.40;74.90;;;;;;5068863;28;20191;-67
2023/08/03 07:59:47;;;;;;;13.57;3.47;;;17.40;75.10;;;;;;5072401;28;20294;-67
2023/08/03 08:02:15;;;;;;;7.07;2.87;;;17.30;75.20;;;;;;5064305;28;20240;-69
2023/08/03 08:04:42;;;;;;;11.07;3.03;;;17.30;75.40;;;;;;5069347;28;20195;-65
2023/08/03 08:07:10;;;;;;;8.27;3.07;;;17.40;75.50;;;;;;5070360;28;20508;-65
2023/08/03 08:09:37;;;;;;;12.97;3.13;;;17.30;75.80;;;;;;5070248;28;20726;-65
2023/08/03 08:12:07;;;;;;;11.63;2.80;;;17.30;75.90;;;;;;5073185;28;20276;-65
2023/08/03 08:14:35;;;;;;;10.40;3.13;;;17.30;76.20;;;;;;5069299;28;20252;-65
2023/08/03 08:17:02;;;;;;;8.23;2.93;;;17.30;76.30;;;;;;5072090;28;20189;-65
2023/08/03 08:19:31;;;;;;;10.50;2.60;;;17.20;76.50;;;;;;5068906;28;20224;-67
2023/08/03 08:21:58;;;;;;;8.70;3.10;;;17.20;76.70;;;;;;5069685;28;20222;-65
2023/08/03 08:24:26;;;;;;;8.00;2.80;;;17.20;76.80;;;;;;5069994;28;20641;-65
2023/08/03 08:26:53;;;;;;;12.33;3.43;;;17.10;76.90;;;;;;5071209;28;20221;-67
2023/08/03 08:29:21;;;;;;;10.77;3.43;;;17.10;76.80;;;;;;5069918;28;20277;-65
2023/08/03 08:31:49;;;;;;;8.57;3.50;;;17.10;76.90;;;;;;5069366;28;20280;-65
2023/08/03 08:34:16;;;;;;;9.23;2.97;;;17.10;76.90;;;;;;5069190;28;20193;-65
2023/08/03 08:36:44;;;;;;;8.10;2.53;;;17.10;76.80;;;;;;5069740;28;20224;-66
2023/08/03 08:39:11;;;;;;;10.67;3.40;;;17.10;76.80;;;;;;5068635;28;20226;-69
2023/08/03 08:41:40;;;;;;;9.77;2.80;;;17.00;76.70;;;;;;5063065;28;20640;-66
2023/08/03 08:44:12;;;;;;;7.20;2.90;;;17.00;76.80;;;;;;5070231;28;20192;-66
2023/08/03 08:46:45;;;;;;;11.70;2.73;;;17.00;76.80;;;;;;5067560;28;20187;-65
2023/08/03 08:49:12;;;;;;;8.67;2.87;;;17.00;76.70;;;;;;5069888;28;20198;-69
2023/08/03 08:51:42;;;;;;;7.03;3.70;;;17.00;76.60;;;;;;5067730;28;20560;-66
2023/08/03 08:54:09;;;;;;;13.43;3.30;;;17.00;76.60;;;;;;5066689;28;20190;-65
2023/08/03 08:56:37;;;;;;;8.37;3.20;;;17.00;76.70;;;;;;5070737;28;20183;-67
2023/08/03 08:59:04;;;;;;;10.90;3.20;;;17.00;76.70;;;;;;5070517;28;20210;-66
2023/08/03 09:01:54;;;;;;;11.80;2.70;;;17.00;76.90;;;;;;5070880;28;21362;-66
2023/08/03 09:04:35;;;;;;;8.80;2.60;;;17.00;77.00;;;;;;5068594;28;20179;-65
2023/08/03 09:07:02;;;;;;;11.77;2.97;;;17.00;77.10;;;;;;5068517;28;20194;-66
2023/08/03 09:09:36;;;;;;;10.37;2.90;;;17.00;77.40;;;;;;5068550;28;20239;-65
2023/08/03 09:12:03;;;;;;;11.40;3.00;;;17.00;77.60;;;;;;5067050;28;20197;-65
2023/08/03 09:14:31;;;;;;;11.30;2.40;;;17.00;77.90;;;;;;5067999;28;20279;-66
2023/08/03 09:17:25;;;;;;;13.10;2.97;;;17.00;78.20;;;;;;5075275;28;20243;-65
2023/08/03 09:19:53;;;;;;;8.87;2.70;;;17.00;78.30;;;;;;5074968;28;20292;-66
2023/08/03 09:22:23;;;;;;;12.73;2.80;;;16.90;78.40;;;;;;5069423;28;20191;-66
2023/08/03 09:25:06;;;;;;;11.33;2.80;;;16.90;78.40;;;;;;5074642;28;20237;-65
2023/08/03 09:27:34;;;;;;;8.17;3.03;;;16.90;78.40;;;;;;5071418;28;20186;-65
2023/08/03 09:30:04;;;;;;;10.43;2.97;;;16.90;78.60;;;;;;5078117;28;20239;-65
2023/08/03 09:32:40;;;;;;;9.70;2.50;;;16.90;78.60;;;;;;5072756;28;20236;-65
2023/08/03 09:35:22;;;;;;;9.30;2.83;;;16.80;78.70;;;;;;5069989;28;20178;-65
2023/08/03 09:37:52;;;;;;;9.50;2.67;;;16.80;78.90;;;;;;5071927;28;20201;-66
2023/08/03 09:40:20;;;;;;;6.77;2.60;;;16.80;78.90;;;;;;5078466;28;20208;-65
2023/08/03 09:42:49;;;;;;;9.70;3.00;;;16.80;79.10;;;;;;5074730;28;20531;-64
2023/08/03 09:45:16;;;;;;;9.90;2.70;;;16.70;79.30;;;;;;5073187;28;20680;-65
2023/08/03 09:47:44;;;;;;;10.50;3.10;;;16.70;79.40;;;;;;5072427;28;20193;-65
2023/08/03 09:50:11;;;;;;;10.27;3.10;;;16.70;79.60;;;;;;5079184;28;20207;-65
2023/08/03 09:52:49;;;;;;;12.83;2.73;;;16.70;79.70;;;;;;5076247;28;20191;-65
2023/08/03 09:55:26;;;;;;;11.07;3.33;;;16.60;80.10;;;;;;5073362;28;20530;-65
2023/08/03 09:58:03;;;;;;;11.80;4.13;;;16.60;80.00;;;;;;5070268;28;20240;-64
2023/08/03 10:00:31;;;;;;;11.90;4.00;;;16.50;79.80;;;;;;5071835;28;20273;-65
2023/08/03 10:03:14;;;;;;;13.10;3.70;;;16.60;79.90;;;;;;5075488;28;20206;-65
2023/08/03 10:06:05;;;;;;;8.73;4.00;;;16.50;79.80;;;;;;5072691;28;20188;-64
2023/08/03 10:08:47;;;;;;;9.10;2.80;;;16.50;79.10;;;;;;5071399;28;20182;-65
2023/08/03 10:11:15;;;;;;;10.37;3.50;;;16.50;78.80;;;;;;5072868;28;20202;-64
2023/08/03 10:13:46;;;;;;;15.73;3.03;;;16.50;78.70;;;;;;5073682;28;20175;-65
2023/08/03 10:16:15;;;;;;;8.07;2.60;;;16.50;78.40;;;;;;5073752;28;20658;-65
2023/08/03 10:18:44;;;;;;;12.40;3.60;;;16.50;78.30;;;;;;5073554;28;20691;-65
2023/08/03 10:21:12;;;;;;;10.37;3.47;;;16.50;78.10;;;;;;5072312;28;21044;-67
2023/08/03 10:23:39;;;;;;;8.40;2.77;;;16.50;78.10;;;;;;5072978;28;20283;-65
2023/08/03 10:26:07;;;;;;;9.67;3.23;;;16.40;78.10;;;;;;5072976;28;20192;-65
2023/08/03 10:28:40;;;;;;;8.33;2.93;;;16.40;78.00;;;;;;5070474;28;20186;-65
2023/08/03 10:31:19;;;;;;;10.27;3.33;;;16.40;77.80;;;;;;5071590;28;20584;-65
2023/08/03 10:33:52;;;;;;;9.13;3.23;;;16.40;77.90;;;;;;5073270;28;20207;-65
2023/08/03 10:36:31;;;;;;;9.47;3.93;;;16.30;78.00;;;;;;5073252;28;20209;-64
2023/08/03 10:39:02;;;;;;;14.03;3.90;;;16.30;78.10;;;;;;5070775;28;20591;-66
2023/08/03 10:41:37;;;;;;;8.47;2.63;;;16.30;78.50;;;;;;5073212;28;20233;-64
2023/08/03 10:44:13;;;;;;;9.00;3.53;;;16.20;78.50;;;;;;5070842;28;20583;-65
2023/08/03 10:46:52;;;;;;;12.93;3.67;;;16.20;78.50;;;;;;5072517;28;20871;-64
2023/08/03 10:49:20;;;;;;;10.90;3.63;;;16.20;78.50;;;;;;5071901;28;20699;-65
2023/08/03 10:51:49;;;;;;;7.40;3.10;;;16.10;78.60;;;;;;5073444;28;20186;-65
2023/08/03 10:54:22;;;;;;;8.50;3.43;;;16.10;78.50;;;;;;5073408;28;20193;-65
2023/08/03 10:57:04;;;;;;;13.73;3.50;;;16.00;78.70;;;;;;5074595;28;20553;-65
2023/08/03 10:59:55;;;;;;;11.67;3.93;;;16.00;78.70;;;;;;5070991;28;20686;-65
2023/08/03 11:02:31;;;;;;;10.60;3.43;;;16.00;78.60;;;;;;5069920;28;20170;-65
2023/08/03 11:05:00;;;;;;;12.00;3.47;;;15.90;79.00;;;;;;5066330;28;20738;-65
2023/08/03 11:07:39;;;;;;;10.57;3.50;;;15.90;78.90;;;;;;5072462;28;20229;-66
2023/08/03 11:10:11;;;;;;;13.07;4.50;;;15.80;78.90;;;;;;5072523;28;20171;-65
2023/08/03 11:12:41;;;;;;;10.13;4.47;;;15.70;79.30;;;;;;5071787;28;20275;-65
2023/08/03 11:15:09;;;;;;;11.63;4.03;;;15.70;79.70;;;;;;5065300;28;20257;-66
2023/08/03 11:17:38;;;;;;;12.23;4.30;;;15.70;79.60;;;;;;5073019;28;20185;-65
2023/08/03 11:20:09;;;;;;;8.57;4.47;;;15.60;79.80;;;;;;5073046;28;20215;-65
2023/08/03 11:22:37;;;;;;;10.63;4.30;;;15.60;80.00;;;;;;5071676;28;20266;-65
2023/08/03 11:25:06;;;;;;;12.37;4.40;;;15.60;80.00;;;;;;5071762;28;20191;-65
2023/08/03 11:27:33;;;;;;;10.57;4.43;;;15.50;80.00;;;;;;5071662;28;20203;-65
2023/08/03 11:30:03;;;;;;;13.13;4.70;;;15.50;80.20;;;;;;5071032;28;20184;-65
2023/08/03 11:32:33;;;;;;;9.63;4.07;;;15.50;80.10;;;;;;5072559;28;20225;-65
2023/08/03 11:35:09;;;;;;;12.73;5.07;;;15.50;80.00;;;;;;5070408;28;20191;-65
2023/08/03 11:37:37;;;;;;;10.60;4.47;;;15.40;80.00;;;;;;5066600;28;20187;-65
2023/08/03 11:40:08;;;;;;;13.53;4.30;;;15.40;80.10;;;;;;5068889;28;20612;-65
2023/08/03 11:42:39;;;;;;;10.57;4.57;;;15.40;80.30;;;;;;5067189;28;20182;-65
2023/08/03 11:45:11;;;;;;;12.60;4.40;;;15.30;80.30;;;;;;5070035;28;20227;-65
2023/08/03 11:47:47;;;;;;;13.93;4.83;;;15.30;80.50;;;;;;5072248;28;20197;-65
2023/08/03 11:50:17;;;;;;;12.97;5.10;;;15.30;80.80;;;;;;5073243;28;20184;-65
2023/08/03 11:52:45;;;;;;;12.60;4.90;;;15.30;81.00;;;;;;5071019;28;20243;-65
2023/08/03 11:55:36;;;;;;;12.70;4.67;;;15.20;81.00;;;;;;5066067;28;20191;-66
2023/08/03 11:58:12;;;;;;;10.67;4.30;;;15.20;81.10;;;;;;5072229;28;20599;-66
2023/08/03 12:00:41;;;;;;;9.50;4.60;;;15.20;80.90;;;;;;5071442;28;20590;-65
2023/08/03 12:03:08;;;;;;;10.43;4.63;;;15.20;80.80;;;;;;5068723;28;20194;-65
2023/08/03 12:05:48;;;;;;;11.00;4.20;;;15.20;80.70;;;;;;5068386;28;20605;-65
2023/08/03 12:08:22;;;;;;;9.53;4.17;;;15.20;80.70;;;;;;5068264;28;20178;-65
2023/08/03 12:11:06;;;;;;;11.33;4.60;;;15.20;80.70;;;;;;5067521;28;20183;-65
2023/08/03 12:13:33;;;;;;;10.10;4.03;;;15.20;80.60;;;;;;5071652;28;20580;-65
2023/08/03 12:16:01;;;;;;;9.60;3.63;;;15.20;80.90;;;;;;5072249;28;20540;-65
2023/08/03 12:18:29;;;;;;;11.63;3.93;;;15.20;80.80;;;;;;5073920;28;20215;-65
2023/08/03 12:20:56;;;;;;;8.17;4.27;;;15.20;80.80;;;;;;5070044;28;20283;-65
2023/08/03 12:23:23;;;;;;;12.43;3.73;;;15.20;80.60;;;;;;5070916;28;20182;-65
2023/08/03 12:25:52;;;;;;;13.33;4.10;;;15.20;80.40;;;;;;5070847;28;20191;-65
2023/08/03 12:28:19;;;;;;;8.17;4.00;;;15.20;80.50;;;;;;5070093;28;20328;-65
2023/08/03 12:30:47;;;;;;;13.33;3.83;;;15.20;80.30;;;;;;5071410;28;20181;-65
2023/08/03 12:33:14;;;;;;;11.00;3.80;;;15.20;80.50;;;;;;5070851;28;20222;-65
2023/08/03 12:35:42;;;;;;;9.97;4.47;;;15.20;80.60;;;;;;5068205;28;20561;-65
2023/08/03 12:38:09;;;;;;;7.80;3.80;;;15.20;80.30;;;;;;5069511;28;20171;-65
2023/08/03 12:40:36;;;;;;;8.53;3.97;;;15.20;80.50;;;;;;5070683;28;20265;-65
2023/08/03 12:43:04;;;;;;;12.37;4.77;;;15.20;80.40;;;;;;5071575;28;20183;-65
2023/08/03 12:45:31;;;;;;;9.50;4.13;;;15.20;80.50;;;;;;5074331;28;20178;-66
2023/08/03 12:48:01;;;;;;;7.07;3.50;;;15.20;80.10;;;;;;5068833;28;20205;-65
2023/08/03 12:50:29;;;;;;;22.33;3.83;;;15.20;80.00;;;;;;5070233;28;20190;-65
2023/08/03 12:52:56;;;;;;;13.23;3.70;;;15.30;79.90;;;;;;5070443;28;20218;-65